createdAt,value
2023-02-06T00:01:01.558Z,8.38
2023-02-06T00:03:03.237Z,8.18
2023-02-06T00:05:05.114Z,8.70
2023-02-06T00:07:06.687Z,9.00
2023-02-06T00:09:08.413Z,8.52
2023-02-06T00:11:13.124Z,9.70
2023-02-06T00:13:14.807Z,9.45
2023-02-06T00:15:16.544Z,9.05
2023-02-06T00:17:18.158Z,8.63
2023-02-06T00:19:20.142Z,8.50
2023-02-06T00:21:26.218Z,10.57
2023-02-06T00:23:27.821Z,10.00
2023-02-06T00:25:29.474Z,9.80
2023-02-06T00:27:31.246Z,8.95
2023-02-06T00:29:32.989Z,9.20
2023-02-06T00:31:34.681Z,8.05
2023-02-06T00:33:37.220Z,9.00
2023-02-06T00:35:38.828Z,8.88
2023-02-06T00:37:40.426Z,9.65
2023-02-06T00:39:42.059Z,8.32
2023-02-06T00:41:43.738Z,9.40
2023-02-06T00:43:45.502Z,8.05
2023-02-06T00:45:54.881Z,8.73
2023-02-06T00:47:56.616Z,7.88
2023-02-06T00:49:58.268Z,9.38
2023-02-06T00:51:59.905Z,9.38
2023-02-06T00:54:02.199Z,7.88
2023-02-06T00:56:04.204Z,8.52
2023-02-06T00:58:05.902Z,7.72
2023-02-06T01:00:08.679Z,7.47
2023-02-06T01:02:10.445Z,7.60
2023-02-06T01:04:12.111Z,7.47
2023-02-06T01:06:13.768Z,8.27
2023-02-06T01:08:15.638Z,6.63
2023-02-06T01:10:17.276Z,7.82
2023-02-06T01:12:18.892Z,8.05
2023-02-06T01:14:20.579Z,7.82
2023-02-06T01:16:24.743Z,6.85
2023-02-06T01:18:26.383Z,8.18
2023-02-06T01:20:28.040Z,7.50
2023-02-06T01:22:29.714Z,9.00
2023-02-06T01:24:31.416Z,6.78
2023-02-06T01:26:33.088Z,7.30
2023-02-06T01:28:41.597Z,8.40
2023-02-06T01:30:43.272Z,7.47
2023-02-06T01:32:44.982Z,7.70
2023-02-06T01:34:46.589Z,7.70
2023-02-06T01:36:48.216Z,7.97
2023-02-06T01:38:50.500Z,7.72
2023-02-06T01:40:57.026Z,6.72
2023-02-06T01:42:58.616Z,7.03
2023-02-06T01:45:36.715Z,7.35
2023-02-06T01:47:38.519Z,6.80
2023-02-06T01:49:44.412Z,5.57
2023-02-06T01:51:46.458Z,6.35
2023-02-06T01:53:51.790Z,6.95
2023-02-06T01:55:54.271Z,5.43
2023-02-06T01:57:56.065Z,5.00
2023-02-06T02:00:01.861Z,5.07
2023-02-06T02:02:03.594Z,5.07
2023-02-06T02:04:09.251Z,7.03
2023-02-06T02:06:14.216Z,4.90
2023-02-06T02:08:23.287Z,4.80
2023-02-06T02:10:24.976Z,5.05
2023-02-06T02:12:26.645Z,4.47
2023-02-06T02:14:28.394Z,4.28
2023-02-06T02:16:44.742Z,4.68
2023-02-06T02:18:52.127Z,4.72
2023-02-06T02:21:05.557Z,3.95
2023-02-06T02:23:30.600Z,4.65
2023-02-06T02:26:12.617Z,4.32
2023-02-06T02:28:35.264Z,4.78
2023-02-06T02:30:55.722Z,4.55
2023-02-06T02:33:00.333Z,4.32
2023-02-06T02:35:07.216Z,4.32
2023-02-06T02:37:30.810Z,3.97
2023-02-06T02:39:37.860Z,3.50
2023-02-06T02:41:51.072Z,4.22
2023-02-06T02:44:10.265Z,3.75
2023-02-06T02:46:17.949Z,5.55
2023-02-06T02:48:43.164Z,4.50
2023-02-06T02:50:45.061Z,4.32
2023-02-06T02:52:46.758Z,5.22
2023-02-06T02:54:48.396Z,3.70
2023-02-06T02:56:50.014Z,4.45
2023-02-06T02:59:05.205Z,4.88
2023-02-06T03:01:14.275Z,3.30
2023-02-06T03:03:18.716Z,3.75
2023-02-06T03:05:23.080Z,3.88
2023-02-06T03:07:51.136Z,3.00
2023-02-06T03:10:00.019Z,4.45
2023-02-06T03:12:12.451Z,3.63
2023-02-06T03:14:29.277Z,3.70
2023-02-06T03:16:39.094Z,3.92
2023-02-06T03:18:49.018Z,3.53
2023-02-06T03:20:51.252Z,3.70
2023-02-06T03:22:54.319Z,2.92
2023-02-06T03:24:57.319Z,3.35
2023-02-06T03:27:02.334Z,4.55
2023-02-06T03:29:06.515Z,3.40
2023-02-06T03:31:11.751Z,4.30
2023-02-06T03:33:15.895Z,2.95
2023-02-06T03:35:23.173Z,2.88
2023-02-06T03:37:24.962Z,3.63
2023-02-06T03:39:27.120Z,3.80
2023-02-06T03:41:37.183Z,3.55
2023-02-06T03:43:38.887Z,3.05
2023-02-06T03:45:41.920Z,2.58
2023-02-06T03:47:44.037Z,2.60
2023-02-06T03:49:46.737Z,3.40
2023-02-06T03:51:53.181Z,2.97
2023-02-06T03:53:56.062Z,3.80
2023-02-06T03:56:01.943Z,3.25
2023-02-06T03:58:06.687Z,2.45
2023-02-06T04:00:09.073Z,2.95
2023-02-06T04:02:10.852Z,3.13
2023-02-06T04:04:16.106Z,3.08
2023-02-06T04:06:17.970Z,2.30
2023-02-06T04:08:19.583Z,3.55
2023-02-06T04:10:21.231Z,2.72
2023-02-06T04:12:23.197Z,2.35
2023-02-06T04:14:24.769Z,2.38
2023-02-06T04:16:26.546Z,2.75
2023-02-06T04:18:28.225Z,3.08
2023-02-06T04:20:29.932Z,2.20
2023-02-06T04:22:31.956Z,2.78
2023-02-06T04:24:33.598Z,2.95
2023-02-06T04:26:35.234Z,2.70
2023-02-06T04:28:36.873Z,2.80
2023-02-06T04:30:38.589Z,3.40
2023-02-06T04:32:40.257Z,2.15
2023-02-06T04:34:41.962Z,2.38
2023-02-06T04:36:43.594Z,2.22
2023-02-06T04:38:45.245Z,2.47
2023-02-06T04:40:47.127Z,2.67
2023-02-06T04:42:48.781Z,2.67
2023-02-06T04:44:50.410Z,2.08
2023-02-06T04:46:52.115Z,2.58
2023-02-06T04:48:53.683Z,2.83
2023-02-06T04:50:55.385Z,2.63
2023-02-06T04:52:57.786Z,2.08
2023-02-06T04:54:59.441Z,2.42
2023-02-06T04:57:01.083Z,2.20
2023-02-06T04:59:02.732Z,2.38
2023-02-06T05:01:04.425Z,3.00
2023-02-06T05:03:06.039Z,2.40
2023-02-06T05:05:09.174Z,2.35
2023-02-06T05:07:10.866Z,1.95
2023-02-06T05:09:12.473Z,2.75
2023-02-06T05:11:14.193Z,3.08
2023-02-06T05:13:15.786Z,2.55
2023-02-06T05:15:17.721Z,2.10
2023-02-06T05:17:19.396Z,1.95
2023-02-06T05:19:21.160Z,2.38
2023-02-06T05:21:23.823Z,2.22
2023-02-06T05:23:25.428Z,2.22
2023-02-06T05:25:27.439Z,2.85
2023-02-06T05:27:29.066Z,2.28
2023-02-06T05:29:30.787Z,2.75
2023-02-06T05:31:32.569Z,2.53
2023-02-06T05:33:34.506Z,2.28
2023-02-06T05:35:38.192Z,2.50
2023-02-06T05:37:39.897Z,2.67
2023-02-06T05:39:42.037Z,2.58
2023-02-06T05:41:43.635Z,2.90
2023-02-06T05:43:45.586Z,2.58
2023-02-06T05:45:47.252Z,2.55
2023-02-06T05:47:48.976Z,2.53
2023-02-06T05:49:50.612Z,2.47
2023-02-06T05:51:52.271Z,2.50
2023-02-06T05:53:53.914Z,2.17
2023-02-06T05:55:56.234Z,2.17
2023-02-06T05:57:58.142Z,2.92
2023-02-06T05:59:59.800Z,2.05
2023-02-06T06:02:01.855Z,2.65
2023-02-06T06:04:03.672Z,2.70
2023-02-06T06:06:06.370Z,2.35
2023-02-06T06:08:07.981Z,2.60
2023-02-06T06:10:09.822Z,2.15
2023-02-06T06:12:11.415Z,1.90
2023-02-06T06:14:13.039Z,1.92
2023-02-06T06:16:14.760Z,2.58
2023-02-06T06:18:16.376Z,2.80
2023-02-06T06:20:18.044Z,2.35
2023-02-06T06:22:19.627Z,2.13
2023-02-06T06:24:21.188Z,2.08
2023-02-06T06:26:22.902Z,3.17
2023-02-06T06:28:24.476Z,2.58
2023-02-06T06:30:26.145Z,2.25
2023-02-06T06:32:27.776Z,2.60
2023-02-06T06:34:29.453Z,2.97
2023-02-06T06:36:31.104Z,2.63
2023-02-06T06:38:32.916Z,2.95
2023-02-06T06:40:42.370Z,2.67
2023-02-06T06:42:43.985Z,2.67
2023-02-06T06:44:45.561Z,3.05
2023-02-06T06:46:47.196Z,2.58
2023-02-06T06:48:49.443Z,3.03
2023-02-06T06:50:51.154Z,2.78
2023-02-06T06:52:52.759Z,2.65
2023-02-06T06:54:54.497Z,2.75
2023-02-06T06:56:56.135Z,2.85
2023-02-06T06:58:57.766Z,3.20
2023-02-06T07:01:00.201Z,2.75
2023-02-06T07:03:01.927Z,2.67
2023-02-06T07:05:04.121Z,2.60
2023-02-06T07:07:06.089Z,3.78
2023-02-06T07:09:07.730Z,3.65
2023-02-06T07:11:10.896Z,3.03
2023-02-06T07:13:12.629Z,3.45
2023-02-06T07:15:14.673Z,3.58
2023-02-06T07:17:16.279Z,3.25
2023-02-06T07:19:17.904Z,4.03
2023-02-06T07:21:19.998Z,2.97
2023-02-06T07:23:21.779Z,4.15
2023-02-06T07:25:23.435Z,3.85
2023-02-06T07:27:25.034Z,3.35
2023-02-06T07:29:26.786Z,3.90
2023-02-06T07:31:28.885Z,3.00
2023-02-06T07:33:40.904Z,3.08
2023-02-06T07:35:43.365Z,3.60
2023-02-06T07:37:49.011Z,2.95
2023-02-06T07:39:50.999Z,3.33
2023-02-06T07:41:52.900Z,3.38
2023-02-06T07:43:55.164Z,4.00
2023-02-06T07:46:04.968Z,3.50
2023-02-06T07:48:09.201Z,2.90
2023-02-06T07:50:11.643Z,3.50
2023-02-06T07:52:13.579Z,3.70
2023-02-06T07:54:15.423Z,3.70
2023-02-06T07:56:19.691Z,3.80
2023-02-06T07:58:21.865Z,3.72
2023-02-06T08:00:26.713Z,3.25
2023-02-06T08:02:30.426Z,4.32
2023-02-06T08:04:35.681Z,3.53
2023-02-06T08:06:41.034Z,4.50
2023-02-06T08:08:43.687Z,4.10
2023-02-06T08:10:50.191Z,4.32
2023-02-06T08:12:52.239Z,3.58
2023-02-06T08:14:53.926Z,3.55
2023-02-06T08:16:55.624Z,3.30
2023-02-06T08:18:57.240Z,4.28
2023-02-06T08:21:07.202Z,4.00
2023-02-06T08:23:08.929Z,3.78
2023-02-06T08:25:13.671Z,5.07
2023-02-06T08:27:15.484Z,4.85
2023-02-06T08:29:21.458Z,3.50
2023-02-06T08:31:26.164Z,4.65
2023-02-06T08:33:28.227Z,3.50
2023-02-06T08:35:30.202Z,4.65
2023-02-06T08:37:33.312Z,3.85
2023-02-06T08:39:35.528Z,4.03
2023-02-06T08:41:38.888Z,3.72
2023-02-06T08:43:40.496Z,4.90
2023-02-06T08:45:42.773Z,3.78
2023-02-06T08:47:44.433Z,3.65
2023-02-06T08:49:50.782Z,3.75
2023-02-06T08:51:53.280Z,4.18
2023-02-06T08:54:06.577Z,4.47
2023-02-06T08:56:11.409Z,4.90
2023-02-06T08:58:13.094Z,4.65
2023-02-06T09:00:17.062Z,4.15
2023-02-06T09:02:19.103Z,4.88
2023-02-06T09:04:21.268Z,4.28
2023-02-06T09:06:23.685Z,5.10
2023-02-06T09:08:25.519Z,4.82
2023-02-06T09:10:28.202Z,4.95
2023-02-06T09:12:30.062Z,5.22
2023-02-06T09:14:37.682Z,4.32
2023-02-06T09:16:39.424Z,4.47
2023-02-06T09:18:41.446Z,4.97
2023-02-06T09:20:43.062Z,5.43
2023-02-06T09:22:44.742Z,5.35
2023-02-06T09:24:46.471Z,4.07
2023-02-06T09:26:59.554Z,4.50
2023-02-06T09:29:05.572Z,4.72
2023-02-06T09:31:08.311Z,4.80
2023-02-06T09:33:11.396Z,4.80
2023-02-06T09:35:13.182Z,4.18
2023-02-06T09:37:23.545Z,4.55
2023-02-06T09:39:25.428Z,4.30
2023-02-06T09:41:30.157Z,3.72
2023-02-06T09:43:33.295Z,4.32
2023-02-06T09:45:35.457Z,5.07
2023-02-06T09:47:47.479Z,4.22
2023-02-06T09:49:54.080Z,4.43
2023-02-06T09:52:17.463Z,4.03
2023-02-06T09:54:59.114Z,4.45
2023-02-06T09:57:21.025Z,4.13
2023-02-06T09:59:45.068Z,3.92
2023-02-06T10:01:58.480Z,4.75
2023-02-06T10:04:22.919Z,5.22
2023-02-06T10:06:28.492Z,4.57
2023-02-06T10:08:44.652Z,3.88
2023-02-06T10:11:00.774Z,5.03
2023-02-06T10:13:07.570Z,6.07
2023-02-06T10:15:21.022Z,4.85
2023-02-06T10:17:27.365Z,5.63
2023-02-06T10:19:54.327Z,4.30
2023-02-06T10:22:02.207Z,3.78
2023-02-06T10:24:42.406Z,3.97
2023-02-06T10:26:44.212Z,3.17
2023-02-06T10:28:56.010Z,3.88
2023-02-06T10:31:28.419Z,3.03
2023-02-06T10:33:30.076Z,3.60
2023-02-06T10:35:40.594Z,3.70
2023-02-06T10:38:06.816Z,3.10
2023-02-06T10:40:27.480Z,2.90
2023-02-06T10:42:29.126Z,2.95
2023-02-06T10:44:37.638Z,2.95
2023-02-06T10:46:43.200Z,3.05
2023-02-06T10:49:03.307Z,2.65
2023-02-06T10:51:22.388Z,2.08
2023-02-06T10:53:34.496Z,2.38
2023-02-06T10:55:44.574Z,2.03
2023-02-06T10:57:48.091Z,2.53
2023-02-06T10:59:53.648Z,2.00
2023-02-06T11:02:07.949Z,2.33
2023-02-06T11:04:16.030Z,2.50
2023-02-06T11:06:20.540Z,1.80
2023-02-06T11:08:26.696Z,1.90
2023-02-06T11:10:28.540Z,2.10
2023-02-06T11:12:42.493Z,2.33
2023-02-06T11:14:44.146Z,2.38
2023-02-06T11:16:46.840Z,1.73
2023-02-06T11:18:49.818Z,1.83
2023-02-06T11:20:53.161Z,2.53
2023-02-06T11:22:56.334Z,2.53
2023-02-06T11:25:05.268Z,2.03
2023-02-06T11:27:22.468Z,2.53
2023-02-06T11:29:27.807Z,2.00
2023-02-06T11:31:40.455Z,2.17
2023-02-06T11:33:49.583Z,2.25
2023-02-06T11:35:54.262Z,2.08
2023-02-06T11:38:06.954Z,2.65
2023-02-06T11:40:17.447Z,1.60
2023-02-06T11:42:21.441Z,2.15
2023-02-06T11:44:25.550Z,1.83
2023-02-06T11:46:29.547Z,1.48
2023-02-06T11:49:02.499Z,1.40
2023-02-06T11:51:05.571Z,1.33
2023-02-06T11:53:14.942Z,1.52
2023-02-06T11:55:24.996Z,1.52
2023-02-06T11:57:27.329Z,2.03
2023-02-06T11:59:30.534Z,1.45
2023-02-06T12:01:43.771Z,1.30
2023-02-06T12:03:55.234Z,1.25
2023-02-06T12:06:04.062Z,1.17
2023-02-06T12:08:14.949Z,1.10
2023-02-06T12:10:19.233Z,1.35
2023-02-06T12:12:26.947Z,1.20
2023-02-06T12:14:48.223Z,1.15
2023-02-06T12:17:01.453Z,0.90
2023-02-06T12:19:13.273Z,1.65
2023-02-06T12:21:49.341Z,1.20
2023-02-06T12:24:01.606Z,1.40
2023-02-06T12:26:07.930Z,0.90
2023-02-06T12:28:23.086Z,0.90
2023-02-06T12:30:33.474Z,1.60
2023-02-06T12:32:40.062Z,0.88
2023-02-06T12:34:56.479Z,0.98
2023-02-06T12:37:13.978Z,1.00
2023-02-06T12:39:20.012Z,1.27
2023-02-06T12:41:24.699Z,1.60
2023-02-06T12:43:27.432Z,1.23
2023-02-06T12:45:47.613Z,1.20
2023-02-06T12:47:57.400Z,0.95
2023-02-06T12:50:05.565Z,0.75
2023-02-06T12:52:31.698Z,1.23
2023-02-06T12:54:43.471Z,1.02
2023-02-06T12:56:57.454Z,1.00
2023-02-06T12:59:31.617Z,1.40
2023-02-06T13:02:10.845Z,1.20
2023-02-06T13:04:23.932Z,1.40
2023-02-06T13:06:28.283Z,1.00
2023-02-06T13:08:37.868Z,1.25
2023-02-06T13:10:40.132Z,1.48
2023-02-06T13:12:41.804Z,1.10
2023-02-06T13:14:49.612Z,1.55
2023-02-06T13:17:17.776Z,1.08
2023-02-06T13:19:25.013Z,1.08
2023-02-06T13:21:32.513Z,1.02
2023-02-06T13:23:34.108Z,0.77
2023-02-06T13:25:36.640Z,1.10
2023-02-06T13:27:39.893Z,1.45
2023-02-06T13:29:48.841Z,1.25
2023-02-06T13:31:50.685Z,1.50
2023-02-06T13:33:58.264Z,1.63
2023-02-06T13:36:06.033Z,1.70
2023-02-06T13:38:22.619Z,1.00
2023-02-06T13:40:24.535Z,1.42
2023-02-06T13:42:35.672Z,1.00
2023-02-06T13:44:38.523Z,1.35
2023-02-06T13:47:08.621Z,1.67
2023-02-06T13:49:42.683Z,1.08
2023-02-06T13:52:05.752Z,1.38
2023-02-06T13:54:41.289Z,1.30
2023-02-06T13:57:09.909Z,1.27
2023-02-06T13:59:35.660Z,1.17
2023-02-06T14:01:37.430Z,1.27
2023-02-06T14:03:43.698Z,1.50
2023-02-06T14:06:04.406Z,1.27
2023-02-06T14:08:53.877Z,1.42
2023-02-06T14:11:04.389Z,0.90
2023-02-06T14:13:45.984Z,1.38
2023-02-06T14:16:04.950Z,1.00
2023-02-06T14:18:09.727Z,0.85
2023-02-06T14:20:33.716Z,1.20
2023-02-06T14:22:47.282Z,1.40
2023-02-06T14:25:21.372Z,1.17
2023-02-06T14:27:32.835Z,1.33
2023-02-06T14:29:40.391Z,1.40
2023-02-06T14:32:00.821Z,1.65
2023-02-06T14:34:27.216Z,1.33
2023-02-06T14:37:15.692Z,1.08
2023-02-06T14:39:36.229Z,1.42
2023-02-06T14:41:39.777Z,0.93
2023-02-06T14:43:43.955Z,1.60
2023-02-06T14:46:04.546Z,1.50
2023-02-06T14:48:24.561Z,1.58
2023-02-06T14:50:34.848Z,1.75
2023-02-06T14:52:36.513Z,1.40
2023-02-06T14:54:38.531Z,1.67
2023-02-06T14:56:40.315Z,1.40
2023-02-06T14:58:46.255Z,1.75
2023-02-06T15:00:48.050Z,1.33
2023-02-06T15:03:04.272Z,1.35
2023-02-06T15:05:06.185Z,1.35
2023-02-06T15:07:22.126Z,1.75
2023-02-06T15:09:24.177Z,1.40
2023-02-06T15:11:34.921Z,1.50
2023-02-06T15:13:37.374Z,1.30
2023-02-06T15:15:39.229Z,1.05
2023-02-06T15:17:41.163Z,1.55
2023-02-06T15:19:42.790Z,1.48
2023-02-06T15:21:44.706Z,1.45
2023-02-06T15:23:55.381Z,1.58
2023-02-06T15:25:59.566Z,1.17
2023-02-06T15:28:07.333Z,1.50
2023-02-06T15:30:25.256Z,1.92
2023-02-06T15:32:30.107Z,2.65
2023-02-06T15:34:31.986Z,3.03
2023-02-06T15:36:36.123Z,2.60
2023-02-06T15:38:39.873Z,2.25
2023-02-06T15:40:45.492Z,1.98
2023-02-06T15:42:48.576Z,2.85
2023-02-06T15:44:50.663Z,2.13
2023-02-06T15:46:53.155Z,2.17
2023-02-06T15:48:57.413Z,2.25
2023-02-06T15:51:03.588Z,1.85
2023-02-06T15:53:21.563Z,2.13
2023-02-06T15:55:33.394Z,1.92
2023-02-06T15:57:39.354Z,2.28
2023-02-06T15:59:41.433Z,1.92
2023-02-06T16:01:43.801Z,1.52
2023-02-06T16:03:46.309Z,1.90
2023-02-06T16:05:48.006Z,1.77
2023-02-06T16:07:49.878Z,2.00
2023-02-06T16:09:54.979Z,3.22
2023-02-06T16:11:57.091Z,1.75
2023-02-06T16:13:58.955Z,2.72
2023-02-06T16:16:27.611Z,2.45
2023-02-06T16:18:32.387Z,2.30
2023-02-06T16:20:34.502Z,3.05
2023-02-06T16:22:38.486Z,2.60
2023-02-06T16:24:40.197Z,1.83
2023-02-06T16:26:47.048Z,1.48
2023-02-06T16:29:00.757Z,2.45
2023-02-06T16:31:04.907Z,2.13
2023-02-06T16:33:27.288Z,2.03
2023-02-06T16:35:30.411Z,1.48
2023-02-06T16:37:32.103Z,1.77
2023-02-06T16:39:33.776Z,2.63
2023-02-06T16:41:38.273Z,1.55
2023-02-06T16:43:40.742Z,1.83
2023-02-06T16:45:42.453Z,1.73
2023-02-06T16:47:44.262Z,1.10
2023-02-06T16:49:49.733Z,2.22
2023-02-06T16:51:53.578Z,1.92
2023-02-06T16:53:55.569Z,1.52
2023-02-06T16:55:57.444Z,1.67
2023-02-06T16:58:00.874Z,1.48
2023-02-06T17:00:05.401Z,1.48
2023-02-06T17:02:11.929Z,1.77
2023-02-06T17:04:13.734Z,2.10
2023-02-06T17:06:19.735Z,2.60
2023-02-06T17:08:23.395Z,2.33
2023-02-06T17:10:26.355Z,1.70
2023-02-06T17:12:28.613Z,2.00
2023-02-06T17:14:30.308Z,2.20
2023-02-06T17:16:32.190Z,2.13
2023-02-06T17:18:33.808Z,2.75
2023-02-06T17:20:38.420Z,3.10
2023-02-06T17:22:40.253Z,1.98
2023-02-06T17:24:42.449Z,1.77
2023-02-06T17:26:44.118Z,1.60
2023-02-06T17:28:46.338Z,3.45
2023-02-06T17:30:51.055Z,2.00
2023-02-06T17:32:53.040Z,1.77
2023-02-06T17:34:55.621Z,1.63
2023-02-06T17:36:57.559Z,1.88
2023-02-06T17:39:00.134Z,2.80
2023-02-06T17:41:01.866Z,2.55
2023-02-06T17:43:04.773Z,1.90
2023-02-06T17:45:06.983Z,2.63
2023-02-06T17:47:08.717Z,2.67
2023-02-06T17:49:10.836Z,2.78
2023-02-06T17:51:12.536Z,2.97
2023-02-06T17:53:14.786Z,3.22
2023-02-06T17:55:16.791Z,2.83
2023-02-06T17:57:18.466Z,2.80
2023-02-06T17:59:20.091Z,2.60
2023-02-06T18:01:23.259Z,3.00
2023-02-06T18:03:25.332Z,2.10
2023-02-06T18:05:27.404Z,1.85
2023-02-06T18:07:29.129Z,2.53
2023-02-06T18:09:30.773Z,2.33
2023-02-06T18:11:32.581Z,1.95
2023-02-06T18:13:34.232Z,2.42
2023-02-06T18:15:35.899Z,2.20
2023-02-06T18:17:37.632Z,2.78
2023-02-06T18:19:42.654Z,2.58
2023-02-06T18:21:44.400Z,2.58
2023-02-06T18:23:47.387Z,2.53
2023-02-06T18:25:49.119Z,3.05
2023-02-06T18:27:50.834Z,3.40
2023-02-06T18:29:55.123Z,3.03
2023-02-06T18:31:56.960Z,2.58
2023-02-06T18:33:59.659Z,2.33
2023-02-06T18:36:06.080Z,2.35
2023-02-06T18:38:09.960Z,2.67
2023-02-06T18:40:11.985Z,2.65
2023-02-06T18:42:31.916Z,3.58
2023-02-06T18:44:36.465Z,3.60
2023-02-06T18:46:38.777Z,2.58
2023-02-06T18:48:40.417Z,2.05
2023-02-06T18:50:42.932Z,1.80
2023-02-06T18:52:44.655Z,2.28
2023-02-06T18:54:46.831Z,1.77
2023-02-06T18:56:49.778Z,2.17
2023-02-06T18:58:51.517Z,2.25
2023-02-06T19:00:54.260Z,1.73
2023-02-06T19:02:57.995Z,1.48
2023-02-06T19:04:59.947Z,2.13
2023-02-06T19:07:01.633Z,1.55
2023-02-06T19:09:07.150Z,1.88
2023-02-06T19:11:09.625Z,1.80
2023-02-06T19:13:11.237Z,1.95
2023-02-06T19:15:14.902Z,2.00
2023-02-06T19:17:16.723Z,2.25
2023-02-06T19:19:18.907Z,3.05
2023-02-06T19:21:21.968Z,2.38
2023-02-06T19:23:23.611Z,2.00
2023-02-06T19:25:25.472Z,1.75
2023-02-06T19:27:27.264Z,2.00
2023-02-06T19:29:35.539Z,1.80
2023-02-06T19:31:40.603Z,2.03
2023-02-06T19:33:42.433Z,2.00
2023-02-06T19:35:44.383Z,3.15
2023-02-06T19:37:46.030Z,3.42
2023-02-06T19:39:47.684Z,2.47
2023-02-06T19:41:49.328Z,1.92
2023-02-06T19:43:52.930Z,2.20
2023-02-06T19:45:54.837Z,1.95
2023-02-06T19:47:57.208Z,1.95
2023-02-06T19:49:58.914Z,2.08
2023-02-06T19:52:00.802Z,2.60
2023-02-06T19:54:02.776Z,2.42
2023-02-06T19:56:04.851Z,1.85
2023-02-06T19:58:06.472Z,2.70
2023-02-06T20:00:08.900Z,1.98
2023-02-06T20:02:14.291Z,1.92
2023-02-06T20:04:16.435Z,1.98
2023-02-06T20:06:19.254Z,1.42
2023-02-06T20:08:20.869Z,1.40
2023-02-06T20:10:22.605Z,1.70
2023-02-06T20:12:24.291Z,1.85
2023-02-06T20:14:26.859Z,1.50
2023-02-06T20:16:31.805Z,2.33
2023-02-06T20:18:35.205Z,2.03
2023-02-06T20:20:37.363Z,1.95
2023-02-06T20:22:40.022Z,1.88
2023-02-06T20:24:41.584Z,2.05
2023-02-06T20:26:43.281Z,1.58
2023-02-06T20:28:45.397Z,2.00
2023-02-06T20:30:47.141Z,1.50
2023-02-06T20:32:51.645Z,1.60
2023-02-06T20:34:53.288Z,2.20
2023-02-06T20:36:55.784Z,2.42
2023-02-06T20:38:59.599Z,1.85
2023-02-06T20:41:02.885Z,1.83
2023-02-06T20:43:04.471Z,1.85
2023-02-06T20:45:06.467Z,2.13
2023-02-06T20:47:08.162Z,1.55
2023-02-06T20:49:28.863Z,1.80
2023-02-06T20:51:31.585Z,2.13
2023-02-06T20:53:33.231Z,2.08
2023-02-06T20:55:35.017Z,2.22
2023-02-06T20:57:36.672Z,1.75
2023-02-06T20:59:38.494Z,1.77
2023-02-06T21:01:40.924Z,1.75
2023-02-06T21:03:43.968Z,1.92
2023-02-06T21:05:58.339Z,2.38
2023-02-06T21:08:00.095Z,1.40
2023-02-06T21:10:01.712Z,2.30
2023-02-06T21:12:03.796Z,1.50
2023-02-06T21:14:06.325Z,1.83
2023-02-06T21:16:08.754Z,2.55
2023-02-06T21:18:10.428Z,2.53
2023-02-06T21:20:12.376Z,2.50
2023-02-06T21:22:14.086Z,2.13
2023-02-06T21:24:16.940Z,2.30
2023-02-06T21:26:18.966Z,2.30
2023-02-06T21:28:21.558Z,2.15
2023-02-06T21:30:23.231Z,2.08
2023-02-06T21:32:25.570Z,2.22
2023-02-06T21:34:27.299Z,2.88
2023-02-06T21:36:30.609Z,2.15
2023-02-06T21:38:32.536Z,1.85
2023-02-06T21:40:34.200Z,2.03
2023-02-06T21:42:35.825Z,2.38
2023-02-06T21:44:37.868Z,2.70
2023-02-06T21:46:40.414Z,2.30
2023-02-06T21:48:42.026Z,1.75
2023-02-06T21:50:44.930Z,2.10
2023-02-06T21:52:46.648Z,2.00
2023-02-06T21:54:48.289Z,1.98
2023-02-06T21:56:50.002Z,2.83
2023-02-06T21:58:51.909Z,2.45
2023-02-06T22:00:53.564Z,2.78
2023-02-06T22:02:55.342Z,3.35
2023-02-06T22:04:56.947Z,1.70
2023-02-06T22:06:58.622Z,1.83
2023-02-06T22:09:05.570Z,2.38
2023-02-06T22:11:15.289Z,3.03
2023-02-06T22:13:16.909Z,3.08
2023-02-06T22:15:18.878Z,2.20
2023-02-06T22:17:20.586Z,2.08
2023-02-06T22:19:22.264Z,1.73
2023-02-06T22:21:26.335Z,2.25
2023-02-06T22:23:27.948Z,2.50
2023-02-06T22:25:29.561Z,4.70
2023-02-06T22:27:35.134Z,3.53
2023-02-06T22:29:36.906Z,4.88
2023-02-06T22:31:40.418Z,3.55
2023-02-06T22:33:42.714Z,2.60
2023-02-06T22:35:44.467Z,2.35
2023-02-06T22:37:47.187Z,2.55
2023-02-06T22:39:48.844Z,2.83
2023-02-06T22:41:50.713Z,2.42
2023-02-06T22:43:52.476Z,2.40
2023-02-06T22:45:54.225Z,2.17
2023-02-06T22:47:55.910Z,2.78
2023-02-06T22:49:57.540Z,2.40
2023-02-06T22:51:59.403Z,2.30
2023-02-06T22:54:01.209Z,3.03
2023-02-06T22:56:24.173Z,2.67
2023-02-06T22:58:25.794Z,2.63
2023-02-06T23:00:28.708Z,4.00
2023-02-06T23:02:30.463Z,3.37
2023-02-06T23:04:36.224Z,2.47
2023-02-06T23:06:38.117Z,3.20
2023-02-06T23:08:40.449Z,3.17
2023-02-06T23:10:42.153Z,3.23
2023-02-06T23:12:43.830Z,2.87
2023-02-06T23:14:45.486Z,3.53
2023-02-06T23:16:47.714Z,3.10
2023-02-06T23:18:49.458Z,2.90
2023-02-06T23:20:58.672Z,2.33
2023-02-06T23:23:00.330Z,2.13
2023-02-06T23:25:02.006Z,2.93
2023-02-06T23:27:03.850Z,3.67
2023-02-06T23:29:08.922Z,2.97
2023-02-06T23:31:11.488Z,2.33
2023-02-06T23:33:13.533Z,2.77
2023-02-06T23:35:15.306Z,2.90
2023-02-06T23:37:17.011Z,2.53
2023-02-06T23:39:19.167Z,3.30
2023-02-06T23:41:23.711Z,3.83
2023-02-06T23:43:25.386Z,2.47
2023-02-06T23:45:27.984Z,2.73
2023-02-06T23:47:29.673Z,2.53
2023-02-06T23:49:31.324Z,2.73
2023-02-06T23:51:33.374Z,2.93
2023-02-06T23:53:35.253Z,3.57
2023-02-06T23:55:39.406Z,3.90
2023-02-06T23:57:41.531Z,2.97
2023-02-06T23:59:43.159Z,3.47
